sensor_id;sensor_type;location;lat;lon;timestamp;P1;durP1;ratioP1;P2;durP2;ratioP2
74833;SDS011;63361;52.384;20.930;2022-09-12T00:01:49;7.73;;;3.20;;
74833;SDS011;63361;52.384;20.930;2022-09-12T00:04:14;6.80;;;3.37;;
74833;SDS011;63361;52.384;20.930;2022-09-12T00:06:40;9.73;;;3.60;;
74833;SDS011;63361;52.384;20.930;2022-09-12T00:09:07;10.27;;;3.50;;
74833;SDS011;63361;52.384;20.930;2022-09-12T00:11:35;7.25;;;3.50;;
74833;SDS011;63361;52.384;20.930;2022-09-12T00:14:02;8.48;;;3.78;;
74833;SDS011;63361;52.384;20.930;2022-09-12T00:16:29;8.33;;;3.40;;
74833;SDS011;63361;52.384;20.930;2022-09-12T00:18:56;9.95;;;4.03;;
74833;SDS011;63361;52.384;20.930;2022-09-12T00:21:22;8.80;;;3.25;;
74833;SDS011;63361;52.384;20.930;2022-09-12T00:23:49;7.27;;;2.97;;
74833;SDS011;63361;52.384;20.930;2022-09-12T00:26:15;9.98;;;3.25;;
74833;SDS011;63361;52.384;20.930;2022-09-12T00:28:41;11.25;;;3.65;;
74833;SDS011;63361;52.384;20.930;2022-09-12T00:31:08;10.53;;;3.60;;
74833;SDS011;63361;52.384;20.930;2022-09-12T00:33:36;6.30;;;2.78;;
74833;SDS011;63361;52.384;20.930;2022-09-12T00:36:05;8.73;;;3.33;;
74833;SDS011;63361;52.384;20.930;2022-09-12T00:38:33;6.17;;;3.23;;
74833;SDS011;63361;52.384;20.930;2022-09-12T00:41:02;7.10;;;3.40;;
74833;SDS011;63361;52.384;20.930;2022-09-12T00:49:00;8.52;;;3.40;;
74833;SDS011;63361;52.384;20.930;2022-09-12T00:51:30;8.77;;;3.70;;
74833;SDS011;63361;52.384;20.930;2022-09-12T00:53:59;7.93;;;3.10;;
74833;SDS011;63361;52.384;20.930;2022-09-12T00:56:30;7.82;;;3.75;;
74833;SDS011;63361;52.384;20.930;2022-09-12T00:58:57;7.55;;;3.80;;
74833;SDS011;63361;52.384;20.930;2022-09-12T01:01:30;8.27;;;3.42;;
74833;SDS011;63361;52.384;20.930;2022-09-12T01:03:56;7.47;;;3.40;;
74833;SDS011;63361;52.384;20.930;2022-09-12T01:06:25;9.87;;;4.40;;
74833;SDS011;63361;52.384;20.930;2022-09-12T01:09:00;9.68;;;3.78;;
74833;SDS011;63361;52.384;20.930;2022-09-12T01:11:29;6.88;;;3.53;;
74833;SDS011;63361;52.384;20.930;2022-09-12T01:13:58;8.23;;;3.40;;
74833;SDS011;63361;52.384;20.930;2022-09-12T01:16:23;6.57;;;3.50;;
74833;SDS011;63361;52.384;20.930;2022-09-12T01:18:54;8.07;;;3.13;;
74833;SDS011;63361;52.384;20.930;2022-09-12T01:22:03;5.85;;;3.10;;
74833;SDS011;63361;52.384;20.930;2022-09-12T01:27:16;7.10;;;3.20;;
74833;SDS011;63361;52.384;20.930;2022-09-12T01:41:01;6.93;;;3.53;;
74833;SDS011;63361;52.384;20.930;2022-09-12T01:43:49;6.75;;;3.30;;
74833;SDS011;63361;52.384;20.930;2022-09-12T01:46:17;6.30;;;3.30;;
74833;SDS011;63361;52.384;20.930;2022-09-12T01:51:23;9.80;;;3.60;;
74833;SDS011;63361;52.384;20.930;2022-09-12T01:54:05;6.80;;;3.83;;
74833;SDS011;63361;52.384;20.930;2022-09-12T01:56:35;11.65;;;3.80;;
74833;SDS011;63361;52.384;20.930;2022-09-12T01:59:05;8.83;;;3.77;;
74833;SDS011;63361;52.384;20.930;2022-09-12T02:01:48;13.07;;;3.92;;
74833;SDS011;63361;52.384;20.930;2022-09-12T02:04:29;10.48;;;4.65;;
74833;SDS011;63361;52.384;20.930;2022-09-12T02:07:13;8.45;;;3.50;;
74833;SDS011;63361;52.384;20.930;2022-09-12T02:12:13;8.83;;;3.70;;
74833;SDS011;63361;52.384;20.930;2022-09-12T02:14:47;7.07;;;3.78;;
74833;SDS011;63361;52.384;20.930;2022-09-12T02:17:18;9.32;;;3.80;;
74833;SDS011;63361;52.384;20.930;2022-09-12T02:19:48;8.35;;;4.10;;
74833;SDS011;63361;52.384;20.930;2022-09-12T02:22:18;8.05;;;3.47;;
74833;SDS011;63361;52.384;20.930;2022-09-12T02:24:47;7.10;;;3.40;;
74833;SDS011;63361;52.384;20.930;2022-09-12T02:29:53;7.40;;;3.15;;
74833;SDS011;63361;52.384;20.930;2022-09-12T02:32:29;8.10;;;3.87;;
74833;SDS011;63361;52.384;20.930;2022-09-12T02:35:08;7.63;;;3.65;;
74833;SDS011;63361;52.384;20.930;2022-09-12T02:40:11;7.68;;;3.88;;
74833;SDS011;63361;52.384;20.930;2022-09-12T02:42:37;8.23;;;4.05;;
74833;SDS011;63361;52.384;20.930;2022-09-12T02:45:03;7.90;;;3.83;;
74833;SDS011;63361;52.384;20.930;2022-09-12T02:47:37;6.63;;;3.85;;
74833;SDS011;63361;52.384;20.930;2022-09-12T02:50:04;7.93;;;3.70;;
74833;SDS011;63361;52.384;20.930;2022-09-12T02:52:32;9.88;;;4.07;;
74833;SDS011;63361;52.384;20.930;2022-09-12T02:54:57;12.73;;;4.47;;
74833;SDS011;63361;52.384;20.930;2022-09-12T02:57:23;9.40;;;3.87;;
74833;SDS011;63361;52.384;20.930;2022-09-12T02:59:53;9.20;;;4.53;;
74833;SDS011;63361;52.384;20.930;2022-09-12T03:04:57;6.75;;;3.67;;
74833;SDS011;63361;52.384;20.930;2022-09-12T03:07:32;7.47;;;3.37;;
74833;SDS011;63361;52.384;20.930;2022-09-12T03:13:25;8.15;;;3.95;;
74833;SDS011;63361;52.384;20.930;2022-09-12T03:18:55;7.25;;;4.13;;
74833;SDS011;63361;52.384;20.930;2022-09-12T03:24:36;7.93;;;4.43;;
74833;SDS011;63361;52.384;20.930;2022-09-12T03:27:14;10.60;;;4.68;;
74833;SDS011;63361;52.384;20.930;2022-09-12T03:29:44;10.80;;;6.45;;
74833;SDS011;63361;52.384;20.930;2022-09-12T03:32:12;10.38;;;6.03;;
74833;SDS011;63361;52.384;20.930;2022-09-12T03:34:37;9.53;;;5.47;;
74833;SDS011;63361;52.384;20.930;2022-09-12T03:37:03;11.20;;;5.97;;
74833;SDS011;63361;52.384;20.930;2022-09-12T03:39:29;11.60;;;6.22;;
74833;SDS011;63361;52.384;20.930;2022-09-12T03:41:54;10.40;;;6.47;;
74833;SDS011;63361;52.384;20.930;2022-09-12T03:44:20;12.05;;;7.38;;
74833;SDS011;63361;52.384;20.930;2022-09-12T03:46:46;13.20;;;9.20;;
74833;SDS011;63361;52.384;20.930;2022-09-12T03:49:11;15.30;;;9.48;;
74833;SDS011;63361;52.384;20.930;2022-09-12T03:51:37;15.67;;;7.50;;
74833;SDS011;63361;52.384;20.930;2022-09-12T03:54:03;20.50;;;11.05;;
74833;SDS011;63361;52.384;20.930;2022-09-12T03:56:29;21.48;;;10.00;;
74833;SDS011;63361;52.384;20.930;2022-09-12T03:58:55;18.17;;;8.63;;
74833;SDS011;63361;52.384;20.930;2022-09-12T04:01:20;17.23;;;8.27;;
74833;SDS011;63361;52.384;20.930;2022-09-12T04:03:47;16.05;;;8.07;;
74833;SDS011;63361;52.384;20.930;2022-09-12T04:06:16;12.63;;;7.15;;
74833;SDS011;63361;52.384;20.930;2022-09-12T04:08:43;13.27;;;6.27;;
74833;SDS011;63361;52.384;20.930;2022-09-12T04:11:13;10.45;;;5.50;;
74833;SDS011;63361;52.384;20.930;2022-09-12T04:13:40;10.27;;;5.35;;
74833;SDS011;63361;52.384;20.930;2022-09-12T04:16:07;11.02;;;5.38;;
74833;SDS011;63361;52.384;20.930;2022-09-12T04:18:34;10.77;;;5.22;;
74833;SDS011;63361;52.384;20.930;2022-09-12T04:21:04;12.23;;;5.27;;
74833;SDS011;63361;52.384;20.930;2022-09-12T04:23:30;12.85;;;5.35;;
74833;SDS011;63361;52.384;20.930;2022-09-12T04:25:57;8.93;;;5.03;;
74833;SDS011;63361;52.384;20.930;2022-09-12T04:28:24;10.55;;;5.20;;
74833;SDS011;63361;52.384;20.930;2022-09-12T04:30:50;9.35;;;5.40;;
74833;SDS011;63361;52.384;20.930;2022-09-12T04:33:16;11.40;;;4.90;;
74833;SDS011;63361;52.384;20.930;2022-09-12T04:35:41;8.57;;;5.32;;
74833;SDS011;63361;52.384;20.930;2022-09-12T04:38:07;13.73;;;5.33;;
74833;SDS011;63361;52.384;20.930;2022-09-12T04:40:33;10.10;;;5.22;;
74833;SDS011;63361;52.384;20.930;2022-09-12T04:42:59;9.90;;;5.20;;
74833;SDS011;63361;52.384;20.930;2022-09-12T04:45:24;10.68;;;4.80;;
74833;SDS011;63361;52.384;20.930;2022-09-12T04:47:50;9.00;;;4.97;;
74833;SDS011;63361;52.384;20.930;2022-09-12T04:50:15;11.27;;;5.40;;
74833;SDS011;63361;52.384;20.930;2022-09-12T04:52:41;11.05;;;5.75;;
74833;SDS011;63361;52.384;20.930;2022-09-12T04:55:06;12.60;;;5.67;;
74833;SDS011;63361;52.384;20.930;2022-09-12T04:57:32;9.70;;;5.75;;
74833;SDS011;63361;52.384;20.930;2022-09-12T04:59:59;10.10;;;5.38;;
74833;SDS011;63361;52.384;20.930;2022-09-12T05:02:25;11.03;;;5.27;;
74833;SDS011;63361;52.384;20.930;2022-09-12T05:04:51;11.30;;;6.25;;
74833;SDS011;63361;52.384;20.930;2022-09-12T05:07:18;10.20;;;5.45;;
74833;SDS011;63361;52.384;20.930;2022-09-12T05:09:43;10.00;;;6.00;;
74833;SDS011;63361;52.384;20.930;2022-09-12T05:12:09;11.97;;;6.00;;
74833;SDS011;63361;52.384;20.930;2022-09-12T05:14:35;10.10;;;5.72;;
74833;SDS011;63361;52.384;20.930;2022-09-12T05:17:00;11.03;;;5.70;;
74833;SDS011;63361;52.384;20.930;2022-09-12T05:19:27;9.57;;;5.25;;
74833;SDS011;63361;52.384;20.930;2022-09-12T05:21:54;9.80;;;5.90;;
74833;SDS011;63361;52.384;20.930;2022-09-12T05:24:20;13.25;;;5.32;;
74833;SDS011;63361;52.384;20.930;2022-09-12T05:26:46;9.70;;;5.33;;
74833;SDS011;63361;52.384;20.930;2022-09-12T05:29:11;10.32;;;5.50;;
74833;SDS011;63361;52.384;20.930;2022-09-12T05:31:37;11.40;;;6.13;;
74833;SDS011;63361;52.384;20.930;2022-09-12T05:34:03;13.18;;;5.88;;
74833;SDS011;63361;52.384;20.930;2022-09-12T05:36:31;10.35;;;5.47;;
74833;SDS011;63361;52.384;20.930;2022-09-12T05:38:58;11.13;;;5.80;;
74833;SDS011;63361;52.384;20.930;2022-09-12T05:41:28;12.23;;;5.50;;
74833;SDS011;63361;52.384;20.930;2022-09-12T05:43:58;9.50;;;6.07;;
74833;SDS011;63361;52.384;20.930;2022-09-12T05:46:26;12.88;;;5.63;;
74833;SDS011;63361;52.384;20.930;2022-09-12T05:48:53;12.55;;;6.07;;
74833;SDS011;63361;52.384;20.930;2022-09-12T05:51:30;12.50;;;6.13;;
74833;SDS011;63361;52.384;20.930;2022-09-12T05:53:59;11.77;;;5.37;;
74833;SDS011;63361;52.384;20.930;2022-09-12T05:56:27;10.50;;;5.60;;
74833;SDS011;63361;52.384;20.930;2022-09-12T06:01:24;11.45;;;5.88;;
74833;SDS011;63361;52.384;20.930;2022-09-12T06:03:51;9.43;;;5.80;;
74833;SDS011;63361;52.384;20.930;2022-09-12T06:06:19;9.77;;;5.97;;
74833;SDS011;63361;52.384;20.930;2022-09-12T06:08:46;11.52;;;5.50;;
74833;SDS011;63361;52.384;20.930;2022-09-12T06:11:14;10.32;;;5.40;;
74833;SDS011;63361;52.384;20.930;2022-09-12T06:13:42;9.95;;;5.63;;
74833;SDS011;63361;52.384;20.930;2022-09-12T06:16:12;10.65;;;5.57;;
74833;SDS011;63361;52.384;20.930;2022-09-12T06:18:46;9.27;;;5.70;;
74833;SDS011;63361;52.384;20.930;2022-09-12T06:21:13;9.85;;;6.07;;
74833;SDS011;63361;52.384;20.930;2022-09-12T06:23:39;13.70;;;6.07;;
74833;SDS011;63361;52.384;20.930;2022-09-12T06:26:06;10.20;;;6.60;;
74833;SDS011;63361;52.384;20.930;2022-09-12T06:28:33;13.70;;;6.45;;
74833;SDS011;63361;52.384;20.930;2022-09-12T06:31:05;12.37;;;5.70;;
74833;SDS011;63361;52.384;20.930;2022-09-12T06:33:32;11.15;;;5.88;;
74833;SDS011;63361;52.384;20.930;2022-09-12T06:36:05;9.50;;;5.93;;
74833;SDS011;63361;52.384;20.930;2022-09-12T06:38:38;8.75;;;5.40;;
74833;SDS011;63361;52.384;20.930;2022-09-12T06:41:04;12.40;;;5.43;;
74833;SDS011;63361;52.384;20.930;2022-09-12T06:43:31;9.63;;;5.38;;
74833;SDS011;63361;52.384;20.930;2022-09-12T06:45:57;10.70;;;6.03;;
74833;SDS011;63361;52.384;20.930;2022-09-12T06:48:23;8.27;;;5.10;;
74833;SDS011;63361;52.384;20.930;2022-09-12T06:50:58;10.17;;;4.90;;
74833;SDS011;63361;52.384;20.930;2022-09-12T06:53:26;9.98;;;4.97;;
74833;SDS011;63361;52.384;20.930;2022-09-12T06:58:21;9.27;;;5.07;;
74833;SDS011;63361;52.384;20.930;2022-09-12T07:00:46;8.98;;;4.75;;
74833;SDS011;63361;52.384;20.930;2022-09-12T07:03:12;10.03;;;4.57;;
74833;SDS011;63361;52.384;20.930;2022-09-12T07:05:37;9.73;;;4.60;;
74833;SDS011;63361;52.384;20.930;2022-09-12T07:08:03;11.70;;;5.13;;
74833;SDS011;63361;52.384;20.930;2022-09-12T07:10:28;7.50;;;4.10;;
74833;SDS011;63361;52.384;20.930;2022-09-12T07:12:55;8.25;;;4.82;;
74833;SDS011;63361;52.384;20.930;2022-09-12T07:15:20;8.73;;;4.70;;
74833;SDS011;63361;52.384;20.930;2022-09-12T07:17:45;10.77;;;5.03;;
74833;SDS011;63361;52.384;20.930;2022-09-12T07:20:11;12.17;;;5.30;;
74833;SDS011;63361;52.384;20.930;2022-09-12T07:22:36;9.23;;;4.60;;
74833;SDS011;63361;52.384;20.930;2022-09-12T07:25:02;7.93;;;4.67;;
74833;SDS011;63361;52.384;20.930;2022-09-12T07:27:27;7.50;;;4.35;;
74833;SDS011;63361;52.384;20.930;2022-09-12T07:29:52;11.47;;;5.50;;
74833;SDS011;63361;52.384;20.930;2022-09-12T07:32:18;8.60;;;4.57;;
74833;SDS011;63361;52.384;20.930;2022-09-12T07:34:43;9.53;;;4.70;;
74833;SDS011;63361;52.384;20.930;2022-09-12T07:37:09;10.10;;;5.03;;
74833;SDS011;63361;52.384;20.930;2022-09-12T07:39:34;8.50;;;4.80;;
74833;SDS011;63361;52.384;20.930;2022-09-12T07:42:01;10.23;;;4.63;;
74833;SDS011;63361;52.384;20.930;2022-09-12T07:44:27;8.83;;;4.23;;
74833;SDS011;63361;52.384;20.930;2022-09-12T07:46:53;7.07;;;4.13;;
74833;SDS011;63361;52.384;20.930;2022-09-12T07:49:18;9.27;;;4.50;;
74833;SDS011;63361;52.384;20.930;2022-09-12T07:51:44;9.70;;;4.20;;
74833;SDS011;63361;52.384;20.930;2022-09-12T07:54:09;10.13;;;3.92;;
74833;SDS011;63361;52.384;20.930;2022-09-12T07:56:35;8.10;;;4.28;;
74833;SDS011;63361;52.384;20.930;2022-09-12T07:59:01;9.63;;;4.30;;
74833;SDS011;63361;52.384;20.930;2022-09-12T08:01:27;8.13;;;3.67;;
74833;SDS011;63361;52.384;20.930;2022-09-12T08:03:56;10.80;;;4.82;;
74833;SDS011;63361;52.384;20.930;2022-09-12T08:06:23;10.83;;;4.00;;
74833;SDS011;63361;52.384;20.930;2022-09-12T08:08:49;6.82;;;3.90;;
74833;SDS011;63361;52.384;20.930;2022-09-12T08:11:17;12.40;;;4.18;;
74833;SDS011;63361;52.384;20.930;2022-09-12T08:13:44;11.18;;;4.15;;
74833;SDS011;63361;52.384;20.930;2022-09-12T08:16:11;7.60;;;4.07;;
74833;SDS011;63361;52.384;20.930;2022-09-12T08:18:38;6.50;;;3.40;;
74833;SDS011;63361;52.384;20.930;2022-09-12T08:21:05;8.32;;;3.50;;
74833;SDS011;63361;52.384;20.930;2022-09-12T08:23:36;8.55;;;3.67;;
74833;SDS011;63361;52.384;20.930;2022-09-12T08:26:02;7.30;;;3.67;;
74833;SDS011;63361;52.384;20.930;2022-09-12T08:28:29;9.27;;;4.53;;
74833;SDS011;63361;52.384;20.930;2022-09-12T08:31:05;8.30;;;3.50;;
74833;SDS011;63361;52.384;20.930;2022-09-12T08:33:32;10.15;;;4.18;;
74833;SDS011;63361;52.384;20.930;2022-09-12T08:38:28;9.15;;;3.53;;
74833;SDS011;63361;52.384;20.930;2022-09-12T08:40:54;9.30;;;3.50;;
74833;SDS011;63361;52.384;20.930;2022-09-12T08:46:10;8.05;;;4.10;;
74833;SDS011;63361;52.384;20.930;2022-09-12T08:48:42;7.05;;;3.35;;
74833;SDS011;63361;52.384;20.930;2022-09-12T08:51:10;8.43;;;4.25;;
74833;SDS011;63361;52.384;20.930;2022-09-12T08:53:40;7.53;;;3.57;;
74833;SDS011;63361;52.384;20.930;2022-09-12T08:56:08;7.13;;;3.67;;
74833;SDS011;63361;52.384;20.930;2022-09-12T08:58:39;9.15;;;3.85;;
74833;SDS011;63361;52.384;20.930;2022-09-12T09:12:22;7.45;;;3.67;;
74833;SDS011;63361;52.384;20.930;2022-09-12T09:18:07;7.63;;;3.60;;
74833;SDS011;63361;52.384;20.930;2022-09-12T09:20:43;7.23;;;3.17;;
74833;SDS011;63361;52.384;20.930;2022-09-12T09:23:24;5.95;;;3.10;;
74833;SDS011;63361;52.384;20.930;2022-09-12T09:25:59;6.85;;;3.33;;
74833;SDS011;63361;52.384;20.930;2022-09-12T09:28:30;6.68;;;3.08;;
74833;SDS011;63361;52.384;20.930;2022-09-12T09:31:01;6.15;;;3.45;;
74833;SDS011;63361;52.384;20.930;2022-09-12T09:33:29;8.40;;;3.37;;
74833;SDS011;63361;52.384;20.930;2022-09-12T09:38:54;11.20;;;3.70;;
74833;SDS011;63361;52.384;20.930;2022-09-12T09:44:26;6.45;;;3.17;;
74833;SDS011;63361;52.384;20.930;2022-09-12T09:46:53;6.27;;;2.90;;
74833;SDS011;63361;52.384;20.930;2022-09-12T09:49:22;6.70;;;3.30;;
74833;SDS011;63361;52.384;20.930;2022-09-12T09:51:49;9.63;;;3.30;;
74833;SDS011;63361;52.384;20.930;2022-09-12T09:54:25;10.00;;;3.03;;
74833;SDS011;63361;52.384;20.930;2022-09-12T09:56:58;8.43;;;3.72;;
74833;SDS011;63361;52.384;20.930;2022-09-12T09:59:27;8.37;;;3.17;;
74833;SDS011;63361;52.384;20.930;2022-09-12T10:04:39;6.50;;;3.10;;
74833;SDS011;63361;52.384;20.930;2022-09-12T10:07:06;7.25;;;2.83;;
74833;SDS011;63361;52.384;20.930;2022-09-12T10:09:44;6.22;;;3.30;;
74833;SDS011;63361;52.384;20.930;2022-09-12T10:12:30;5.60;;;2.97;;
74833;SDS011;63361;52.384;20.930;2022-09-12T10:14:59;6.50;;;3.30;;
74833;SDS011;63361;52.384;20.930;2022-09-12T10:20:03;9.63;;;2.78;;
74833;SDS011;63361;52.384;20.930;2022-09-12T10:22:28;6.20;;;3.23;;
74833;SDS011;63361;52.384;20.930;2022-09-12T10:24:56;8.52;;;3.50;;
74833;SDS011;63361;52.384;20.930;2022-09-12T10:27:24;5.80;;;3.50;;
74833;SDS011;63361;52.384;20.930;2022-09-12T10:29:53;8.52;;;3.17;;
74833;SDS011;63361;52.384;20.930;2022-09-12T10:32:25;9.63;;;3.38;;
74833;SDS011;63361;52.384;20.930;2022-09-12T10:35:01;7.43;;;3.55;;
74833;SDS011;63361;52.384;20.930;2022-09-12T10:37:29;8.02;;;4.10;;
74833;SDS011;63361;52.384;20.930;2022-09-12T10:39:57;6.77;;;3.43;;
74833;SDS011;63361;52.384;20.930;2022-09-12T10:42:41;6.88;;;3.50;;
74833;SDS011;63361;52.384;20.930;2022-09-12T10:45:17;7.15;;;3.55;;
74833;SDS011;63361;52.384;20.930;2022-09-12T10:47:42;7.63;;;3.13;;
74833;SDS011;63361;52.384;20.930;2022-09-12T10:52:53;6.80;;;3.55;;
74833;SDS011;63361;52.384;20.930;2022-09-12T10:55:30;7.65;;;3.53;;
74833;SDS011;63361;52.384;20.930;2022-09-12T11:00:30;6.40;;;2.90;;
74833;SDS011;63361;52.384;20.930;2022-09-12T11:03:22;5.82;;;2.85;;
74833;SDS011;63361;52.384;20.930;2022-09-12T11:06:05;7.28;;;2.85;;
74833;SDS011;63361;52.384;20.930;2022-09-12T11:17:08;9.05;;;3.00;;
74833;SDS011;63361;52.384;20.930;2022-09-12T11:22:34;7.47;;;3.15;;
74833;SDS011;63361;52.384;20.930;2022-09-12T11:25:13;6.47;;;3.13;;
74833;SDS011;63361;52.384;20.930;2022-09-12T11:31:01;8.82;;;3.13;;
74833;SDS011;63361;52.384;20.930;2022-09-12T11:33:43;5.72;;;2.53;;
74833;SDS011;63361;52.384;20.930;2022-09-12T11:38:58;5.90;;;2.90;;
74833;SDS011;63361;52.384;20.930;2022-09-12T11:41:46;5.45;;;2.63;;
74833;SDS011;63361;52.384;20.930;2022-09-12T11:44:20;8.25;;;2.88;;
74833;SDS011;63361;52.384;20.930;2022-09-12T11:46:50;4.97;;;2.60;;
74833;SDS011;63361;52.384;20.930;2022-09-12T11:49:20;5.77;;;2.70;;
74833;SDS011;63361;52.384;20.930;2022-09-12T11:52:05;7.15;;;2.72;;
74833;SDS011;63361;52.384;20.930;2022-09-12T11:54:52;5.40;;;2.58;;
74833;SDS011;63361;52.384;20.930;2022-09-12T11:57:32;5.47;;;3.10;;
74833;SDS011;63361;52.384;20.930;2022-09-12T12:00:16;5.57;;;2.60;;
74833;SDS011;63361;52.384;20.930;2022-09-12T12:03:01;5.97;;;2.42;;
74833;SDS011;63361;52.384;20.930;2022-09-12T12:07:59;5.38;;;2.55;;
74833;SDS011;63361;52.384;20.930;2022-09-12T12:10:29;7.07;;;3.15;;
74833;SDS011;63361;52.384;20.930;2022-09-12T12:12:56;6.13;;;2.80;;
74833;SDS011;63361;52.384;20.930;2022-09-12T12:15:24;6.20;;;2.90;;
74833;SDS011;63361;52.384;20.930;2022-09-12T12:18:06;4.47;;;2.38;;
74833;SDS011;63361;52.384;20.930;2022-09-12T12:20:39;6.00;;;2.50;;
74833;SDS011;63361;52.384;20.930;2022-09-12T12:23:05;4.27;;;2.37;;
74833;SDS011;63361;52.384;20.930;2022-09-12T12:25:38;7.33;;;2.40;;
74833;SDS011;63361;52.384;20.930;2022-09-12T12:28:05;4.87;;;2.50;;
74833;SDS011;63361;52.384;20.930;2022-09-12T12:38:33;6.13;;;2.67;;
74833;SDS011;63361;52.384;20.930;2022-09-12T12:43:50;4.13;;;2.55;;
74833;SDS011;63361;52.384;20.930;2022-09-12T12:46:17;4.63;;;2.57;;
74833;SDS011;63361;52.384;20.930;2022-09-12T12:48:59;5.65;;;2.80;;
74833;SDS011;63361;52.384;20.930;2022-09-12T12:51:28;6.57;;;3.10;;
74833;SDS011;63361;52.384;20.930;2022-09-12T12:54:03;5.93;;;2.67;;
74833;SDS011;63361;52.384;20.930;2022-09-12T12:56:49;5.53;;;2.60;;
74833;SDS011;63361;52.384;20.930;2022-09-12T12:59:25;7.80;;;2.90;;
74833;SDS011;63361;52.384;20.930;2022-09-12T13:01:54;5.75;;;2.80;;
74833;SDS011;63361;52.384;20.930;2022-09-12T13:04:22;6.57;;;2.70;;
74833;SDS011;63361;52.384;20.930;2022-09-12T13:07:04;7.88;;;3.10;;
74833;SDS011;63361;52.384;20.930;2022-09-12T13:12:07;6.18;;;3.30;;
74833;SDS011;63361;52.384;20.930;2022-09-12T13:14:46;7.65;;;3.10;;
74833;SDS011;63361;52.384;20.930;2022-09-12T13:17:35;5.78;;;2.90;;
74833;SDS011;63361;52.384;20.930;2022-09-12T13:20:07;7.70;;;3.42;;
74833;SDS011;63361;52.384;20.930;2022-09-12T13:22:39;5.43;;;2.57;;
74833;SDS011;63361;52.384;20.930;2022-09-12T13:30:31;6.10;;;2.40;;
74833;SDS011;63361;52.384;20.930;2022-09-12T13:33:02;6.00;;;2.75;;
74833;SDS011;63361;52.384;20.930;2022-09-12T13:44:34;7.18;;;2.47;;
74833;SDS011;63361;52.384;20.930;2022-09-12T13:47:09;4.75;;;2.65;;
74833;SDS011;63361;52.384;20.930;2022-09-12T13:49:40;6.20;;;3.27;;
74833;SDS011;63361;52.384;20.930;2022-09-12T13:52:08;5.43;;;2.47;;
74833;SDS011;63361;52.384;20.930;2022-09-12T13:54:41;5.85;;;2.50;;
74833;SDS011;63361;52.384;20.930;2022-09-12T13:57:25;6.50;;;2.67;;
74833;SDS011;63361;52.384;20.930;2022-09-12T13:59:55;4.15;;;2.33;;
74833;SDS011;63361;52.384;20.930;2022-09-12T14:02:23;5.10;;;2.60;;
74833;SDS011;63361;52.384;20.930;2022-09-12T14:04:50;5.90;;;2.97;;
74833;SDS011;63361;52.384;20.930;2022-09-12T14:07:42;4.25;;;2.50;;
74833;SDS011;63361;52.384;20.930;2022-09-12T14:10:15;4.80;;;2.67;;
74833;SDS011;63361;52.384;20.930;2022-09-12T14:12:49;5.18;;;2.60;;
74833;SDS011;63361;52.384;20.930;2022-09-12T14:15:16;5.53;;;2.73;;
74833;SDS011;63361;52.384;20.930;2022-09-12T14:17:50;5.70;;;2.70;;
74833;SDS011;63361;52.384;20.930;2022-09-12T14:20:18;7.75;;;2.90;;
74833;SDS011;63361;52.384;20.930;2022-09-12T14:22:44;8.35;;;2.83;;
74833;SDS011;63361;52.384;20.930;2022-09-12T14:25:15;6.43;;;3.03;;
74833;SDS011;63361;52.384;20.930;2022-09-12T14:27:44;5.40;;;2.60;;
74833;SDS011;63361;52.384;20.930;2022-09-12T14:33:33;6.35;;;2.80;;
74833;SDS011;63361;52.384;20.930;2022-09-12T14:35:45;5.68;;;3.08;;
74833;SDS011;63361;52.384;20.930;2022-09-12T14:43:18;5.25;;;3.30;;
74833;SDS011;63361;52.384;20.930;2022-09-12T14:45:53;5.30;;;3.20;;
74833;SDS011;63361;52.384;20.930;2022-09-12T14:48:23;4.93;;;2.65;;
74833;SDS011;63361;52.384;20.930;2022-09-12T14:50:49;8.23;;;3.10;;
74833;SDS011;63361;52.384;20.930;2022-09-12T14:55:49;8.33;;;3.27;;
74833;SDS011;63361;52.384;20.930;2022-09-12T15:00:53;8.05;;;4.07;;
74833;SDS011;63361;52.384;20.930;2022-09-12T15:03:32;7.70;;;3.33;;
74833;SDS011;63361;52.384;20.930;2022-09-12T15:08:44;7.43;;;3.47;;
74833;SDS011;63361;52.384;20.930;2022-09-12T15:11:10;8.05;;;3.67;;
74833;SDS011;63361;52.384;20.930;2022-09-12T15:13:39;7.70;;;3.50;;
74833;SDS011;63361;52.384;20.930;2022-09-12T15:16:06;7.40;;;3.70;;
74833;SDS011;63361;52.384;20.930;2022-09-12T15:18:34;8.63;;;3.47;;
74833;SDS011;63361;52.384;20.930;2022-09-12T15:21:01;8.57;;;4.00;;
74833;SDS011;63361;52.384;20.930;2022-09-12T15:23:30;10.32;;;3.88;;
74833;SDS011;63361;52.384;20.930;2022-09-12T15:25:59;8.43;;;3.50;;
74833;SDS011;63361;52.384;20.930;2022-09-12T15:28:26;7.30;;;4.20;;
74833;SDS011;63361;52.384;20.930;2022-09-12T15:30:52;5.88;;;3.38;;
74833;SDS011;63361;52.384;20.930;2022-09-12T15:33:20;13.82;;;5.65;;
74833;SDS011;63361;52.384;20.930;2022-09-12T15:35:48;10.67;;;4.80;;
74833;SDS011;63361;52.384;20.930;2022-09-12T15:38:14;8.48;;;3.90;;
74833;SDS011;63361;52.384;20.930;2022-09-12T15:40:40;8.10;;;4.20;;
74833;SDS011;63361;52.384;20.930;2022-09-12T15:43:05;6.67;;;3.80;;
74833;SDS011;63361;52.384;20.930;2022-09-12T15:45:31;8.30;;;3.93;;
74833;SDS011;63361;52.384;20.930;2022-09-12T15:47:58;10.20;;;4.45;;
74833;SDS011;63361;52.384;20.930;2022-09-12T15:50:25;6.10;;;4.03;;
74833;SDS011;63361;52.384;20.930;2022-09-12T15:52:52;9.13;;;4.40;;
74833;SDS011;63361;52.384;20.930;2022-09-12T15:55:28;7.32;;;4.22;;
74833;SDS011;63361;52.384;20.930;2022-09-12T15:57:56;7.70;;;4.23;;
74833;SDS011;63361;52.384;20.930;2022-09-12T16:00:21;6.78;;;4.22;;
74833;SDS011;63361;52.384;20.930;2022-09-12T16:02:48;7.07;;;4.77;;
74833;SDS011;63361;52.384;20.930;2022-09-12T16:05:19;8.38;;;5.20;;
74833;SDS011;63361;52.384;20.930;2022-09-12T16:07:47;8.07;;;5.10;;
74833;SDS011;63361;52.384;20.930;2022-09-12T16:10:16;8.00;;;5.15;;
74833;SDS011;63361;52.384;20.930;2022-09-12T16:12:43;7.63;;;5.47;;
74833;SDS011;63361;52.384;20.930;2022-09-12T16:15:20;8.97;;;5.13;;
74833;SDS011;63361;52.384;20.930;2022-09-12T16:17:57;9.40;;;5.20;;
74833;SDS011;63361;52.384;20.930;2022-09-12T16:23:28;10.02;;;6.28;;
74833;SDS011;63361;52.384;20.930;2022-09-12T16:25:58;10.43;;;7.22;;
74833;SDS011;63361;52.384;20.930;2022-09-12T16:35:08;10.57;;;5.45;;
74833;SDS011;63361;52.384;20.930;2022-09-12T16:38:00;9.68;;;5.50;;
74833;SDS011;63361;52.384;20.930;2022-09-12T16:40:26;9.07;;;5.85;;
74833;SDS011;63361;52.384;20.930;2022-09-12T16:42:55;9.63;;;5.63;;
74833;SDS011;63361;52.384;20.930;2022-09-12T16:45:24;8.25;;;5.00;;
74833;SDS011;63361;52.384;20.930;2022-09-12T16:47:50;10.15;;;5.75;;
74833;SDS011;63361;52.384;20.930;2022-09-12T16:50:22;9.60;;;6.13;;
74833;SDS011;63361;52.384;20.930;2022-09-12T16:52:55;9.52;;;6.03;;
74833;SDS011;63361;52.384;20.930;2022-09-12T16:55:23;10.90;;;6.43;;
74833;SDS011;63361;52.384;20.930;2022-09-12T16:57:49;13.00;;;7.00;;
74833;SDS011;63361;52.384;20.930;2022-09-12T17:00:20;10.68;;;6.28;;
74833;SDS011;63361;52.384;20.930;2022-09-12T17:02:46;52.53;;;30.75;;
74833;SDS011;63361;52.384;20.930;2022-09-12T17:05:12;13.73;;;8.73;;
74833;SDS011;63361;52.384;20.930;2022-09-12T17:07:40;19.67;;;11.70;;
74833;SDS011;63361;52.384;20.930;2022-09-12T17:10:05;91.78;;;40.05;;
74833;SDS011;63361;52.384;20.930;2022-09-12T17:12:31;53.45;;;24.65;;
74833;SDS011;63361;52.384;20.930;2022-09-12T17:14:56;58.23;;;27.90;;
74833;SDS011;63361;52.384;20.930;2022-09-12T17:17:22;38.17;;;19.40;;
74833;SDS011;63361;52.384;20.930;2022-09-12T17:19:48;17.77;;;10.57;;
74833;SDS011;63361;52.384;20.930;2022-09-12T17:22:13;26.60;;;15.00;;